Time;durP1;ratioP1;P1;durP2;ratioP2;P2;SDS_P1;SDS_P2;PMS_P1;PMS_P2;Temp;Humidity;BMP_temperature;BMP_pressure;BME280_temperature;BME280_humidity;BME280_pressure;Samples;Min_cycle;Max_cycle;Signal;HPM_P1;HPM_P2
2022/11/11 00:00:15;;;;;;;17.98;7.55;;;11.30;99.90;;;;;;5015306;28;20120;-81
2022/11/11 00:02:41;;;;;;;16.63;8.10;;;11.30;99.90;;;;;;5048136;28;20045;-82
2022/11/11 00:05:07;;;;;;;15.90;8.65;;;11.20;99.90;;;;;;5054963;28;20051;-81
2022/11/11 00:07:32;;;;;;;19.67;8.15;;;11.30;99.90;;;;;;5026722;28;20052;-80
2022/11/11 00:09:58;;;;;;;23.10;8.70;;;11.30;99.90;;;;;;5038580;28;20061;-80
2022/11/11 00:12:23;;;;;;;14.52;7.65;;;11.40;99.90;;;;;;5032512;28;20053;-80
2022/11/11 00:14:49;;;;;;;18.58;8.30;;;11.40;99.90;;;;;;5032220;28;20053;-83
2022/11/11 00:25:27;;;;;;;18.02;8.27;;;11.40;99.90;;;;;;5042090;28;20091;-81
2022/11/11 00:27:52;;;;;;;17.40;8.18;;;11.40;99.90;;;;;;5041400;28;20080;-85
2022/11/11 00:30:18;;;;;;;16.80;8.43;;;11.40;99.90;;;;;;5064163;28;20406;-81
2022/11/11 00:32:44;;;;;;;16.67;8.75;;;11.40;99.90;;;;;;5048044;28;20057;-80
2022/11/11 00:37:54;;;;;;;19.15;8.85;;;11.40;99.90;;;;;;5041285;28;20128;-84
2022/11/11 00:40:20;;;;;;;17.80;8.13;;;11.40;99.90;;;;;;5045928;28;20044;-81
2022/11/11 00:42:45;;;;;;;15.82;8.00;;;11.40;99.90;;;;;;5064098;28;20049;-81
2022/11/11 00:45:11;;;;;;;17.30;8.82;;;11.50;99.90;;;;;;5043848;28;20168;-82
2022/11/11 00:53:23;;;;;;;15.70;8.48;;;11.50;99.90;;;;;;5041405;28;20204;-82
2022/11/11 00:55:49;;;;;;;16.98;8.38;;;11.50;99.90;;;;;;5043757;28;20044;-82
2022/11/11 00:58:15;;;;;;;17.25;7.95;;;11.50;99.90;;;;;;5055638;28;20063;-82
2022/11/11 01:00:42;;;;;;;16.02;8.25;;;11.50;99.90;;;;;;5014309;28;20104;-82
2022/11/11 01:03:08;;;;;;;17.67;8.93;;;11.50;99.90;;;;;;5063930;28;20049;-81
2022/11/11 01:05:36;;;;;;;18.40;8.75;;;11.50;99.90;;;;;;5047373;28;20051;-82
2022/11/11 01:08:01;;;;;;;15.70;8.77;;;11.50;99.90;;;;;;5038656;28;20055;-82
2022/11/11 01:10:42;;;;;;;18.15;9.02;;;11.50;99.90;;;;;;5030508;28;20045;-81
2022/11/11 01:13:26;;;;;;;17.92;8.90;;;11.50;99.90;;;;;;5042830;28;20482;-80
2022/11/11 01:15:56;;;;;;;16.15;8.70;;;11.50;99.90;;;;;;5035871;28;20044;-81
2022/11/11 01:18:24;;;;;;;20.63;9.18;;;11.40;99.90;;;;;;5057118;28;20090;-81
2022/11/11 01:21:09;;;;;;;16.00;9.02;;;11.30;99.90;;;;;;5044797;28;20146;-82
2022/11/11 01:23:37;;;;;;;20.17;10.20;;;11.30;99.90;;;;;;5064985;28;20047;-81
2022/11/11 01:26:15;;;;;;;22.65;10.02;;;11.20;99.90;;;;;;5047846;28;20041;-80
2022/11/11 01:28:40;;;;;;;22.05;9.35;;;11.10;99.90;;;;;;5046933;28;20080;-80
2022/11/11 01:31:09;;;;;;;20.55;9.75;;;11.00;99.90;;;;;;5048618;28;20524;-81
2022/11/11 01:33:35;;;;;;;19.95;10.15;;;11.00;99.90;;;;;;5018676;28;20045;-81
2022/11/11 01:36:13;;;;;;;17.75;9.90;;;11.00;99.90;;;;;;5030608;28;20138;-84
2022/11/11 01:38:41;;;;;;;13.38;8.70;;;11.00;99.90;;;;;;5043680;28;20060;-82
2022/11/11 01:43:54;;;;;;;16.95;9.60;;;11.00;99.90;;;;;;5047202;28;20052;-82
2022/11/11 01:46:49;;;;;;;22.33;10.90;;;11.00;99.90;;;;;;5046338;28;20044;-81
2022/11/11 01:49:33;;;;;;;18.38;10.35;;;11.00;99.90;;;;;;5019746;28;20510;-82
2022/11/11 01:51:58;;;;;;;20.60;11.23;;;10.90;99.90;;;;;;5030977;28;20041;-81
2022/11/11 01:54:31;;;;;;;20.88;10.65;;;10.90;99.90;;;;;;5044986;28;20541;-82
2022/11/11 01:57:25;;;;;;;28.25;11.75;;;10.80;99.90;;;;;;5036324;28;20043;-81
2022/11/11 01:59:59;;;;;;;21.02;11.48;;;10.70;99.90;;;;;;5045413;28;20056;-81
2022/11/11 02:02:37;;;;;;;24.48;12.57;;;10.70;99.90;;;;;;5024682;28;20053;-81
2022/11/11 02:07:49;;;;;;;;;;;10.70;99.90;;;;;;5044560;28;20096;-81
2022/11/11 02:10:20;;;;;;;20.97;12.70;;;10.60;99.90;;;;;;5045176;28;20358;-81
2022/11/11 02:15:29;;;;;;;23.83;12.50;;;10.50;99.90;;;;;;5034819;28;20119;-83
2022/11/11 02:17:55;;;;;;;23.20;14.00;;;10.60;99.90;;;;;;5035507;28;20045;-81
2022/11/11 02:20:26;;;;;;;23.83;14.20;;;10.40;99.90;;;;;;5039970;28;20401;-81
2022/11/11 02:23:13;;;;;;;27.08;14.45;;;10.50;99.90;;;;;;5024967;28;20049;-81
2022/11/11 02:25:44;;;;;;;25.60;15.27;;;10.40;99.90;;;;;;5038352;28;20048;-82
2022/11/11 02:28:12;;;;;;;24.25;14.27;;;10.30;99.90;;;;;;5045416;28;20877;-84
2022/11/11 02:30:38;;;;;;;24.50;15.90;;;10.20;99.90;;;;;;5046418;28;20115;-80
2022/11/11 02:33:04;;;;;;;34.42;16.92;;;10.20;99.90;;;;;;5031397;28;20125;-81
2022/11/11 02:35:36;;;;;;;26.05;15.55;;;10.20;99.90;;;;;;5045388;28;20049;-81
2022/11/11 02:38:07;;;;;;;28.02;16.58;;;10.20;99.90;;;;;;5046428;28;20061;-83
2022/11/11 02:43:30;;;;;;;26.85;16.67;;;10.30;99.90;;;;;;5044042;28;20402;-80
2022/11/11 02:45:57;;;;;;;30.00;16.45;;;10.40;99.90;;;;;;5046582;28;20091;-81
2022/11/11 02:48:23;;;;;;;24.35;17.25;;;10.40;99.90;;;;;;5041418;28;20041;-81
2022/11/11 02:50:49;;;;;;;30.52;17.58;;;10.50;99.90;;;;;;5010509;28;20119;-84
2022/11/11 02:53:15;;;;;;;28.77;17.00;;;10.50;99.90;;;;;;5029460;28;20041;-81
2022/11/11 02:55:41;;;;;;;28.50;17.25;;;10.50;99.90;;;;;;5046459;28;20517;-80
2022/11/11 02:58:07;;;;;;;25.15;17.42;;;10.60;99.90;;;;;;5044980;28;20053;-81
2022/11/11 03:00:32;;;;;;;33.35;18.73;;;10.60;99.90;;;;;;5046737;28;20649;-81
2022/11/11 03:02:58;;;;;;;32.33;18.77;;;10.60;99.90;;;;;;5050642;28;20709;-81
2022/11/11 03:05:24;;;;;;;31.02;17.92;;;10.60;99.90;;;;;;5032976;28;20050;-81
2022/11/11 03:07:49;;;;;;;31.80;19.65;;;10.60;99.90;;;;;;5034313;28;20040;-81
2022/11/11 03:10:15;;;;;;;34.22;19.83;;;10.70;99.90;;;;;;5016890;28;20106;-84
2022/11/11 03:12:41;;;;;;;30.63;19.25;;;10.70;99.90;;;;;;5046365;28;20574;-81
2022/11/11 03:15:07;;;;;;;27.83;19.67;;;10.60;99.90;;;;;;5001161;28;20182;-82
2022/11/11 03:17:38;;;;;;;31.58;19.40;;;10.70;99.90;;;;;;5048023;28;20099;-81
2022/11/11 03:23:12;;;;;;;35.25;20.83;;;10.70;99.90;;;;;;5041346;28;20080;-81
2022/11/11 03:25:42;;;;;;;33.60;20.02;;;10.70;99.90;;;;;;5049161;28;20624;-81
2022/11/11 03:28:11;;;;;;;29.90;20.20;;;10.60;99.90;;;;;;5050546;28;20045;-80
2022/11/11 03:30:39;;;;;;;27.02;18.13;;;10.60;99.90;;;;;;5048303;28;20553;-81
2022/11/11 03:33:05;;;;;;;32.22;19.45;;;10.70;99.90;;;;;;5050551;28;20060;-81
2022/11/11 03:35:31;;;;;;;34.95;20.92;;;10.70;99.90;;;;;;5032336;28;20052;-81
2022/11/11 03:38:15;;;;;;;32.55;21.70;;;10.70;99.90;;;;;;5017508;28;20080;-81
2022/11/11 03:40:45;;;;;;;34.85;21.15;;;10.70;99.90;;;;;;5017626;28;20049;-81
2022/11/11 03:43:13;;;;;;;33.28;21.40;;;10.70;99.90;;;;;;5049225;28;20052;-81
2022/11/11 03:45:39;;;;;;;36.40;21.75;;;10.70;99.90;;;;;;5032042;28;20055;-82
2022/11/11 03:48:05;;;;;;;34.83;21.60;;;10.70;99.90;;;;;;5046813;28;20060;-81
2022/11/11 03:50:31;;;;;;;28.45;21.35;;;10.80;99.90;;;;;;5049463;28;20056;-81
2022/11/11 03:52:57;;;;;;;34.17;21.88;;;10.70;99.90;;;;;;5031031;28;20041;-81
2022/11/11 03:55:23;;;;;;;31.35;20.83;;;10.80;99.90;;;;;;5030208;28;20379;-81
2022/11/11 03:57:48;;;;;;;35.28;22.15;;;10.80;99.90;;;;;;5029967;28;20145;-80
2022/11/11 04:00:18;;;;;;;36.65;21.30;;;10.80;99.90;;;;;;5049116;28;20048;-80
2022/11/11 04:11:05;;;;;;;36.10;22.67;;;10.80;99.90;;;;;;5036488;28;20095;-81
2022/11/11 04:16:15;;;;;;;38.15;22.65;;;10.80;99.90;;;;;;5024711;28;20045;-81
2022/11/11 04:21:43;;;;;;;32.95;23.10;;;10.80;99.90;;;;;;5047913;28;20048;-84
2022/11/11 04:27:06;;;;;;;39.05;23.40;;;10.80;99.90;;;;;;5034223;28;20064;-81
2022/11/11 04:29:32;;;;;;;44.00;23.38;;;10.80;99.90;;;;;;5030457;28;20552;-80
2022/11/11 04:34:49;;;;;;;33.85;22.67;;;10.80;99.90;;;;;;5052878;28;20055;-81
2022/11/11 04:37:16;;;;;;;33.25;22.02;;;10.80;99.90;;;;;;5065192;28;20055;-81
2022/11/11 04:42:27;;;;;;;35.67;22.20;;;10.80;99.90;;;;;;5048550;28;20496;-81
2022/11/11 04:47:38;;;;;;;39.97;23.52;;;10.80;99.90;;;;;;5047749;28;20057;-81
2022/11/11 04:50:04;;;;;;;37.22;23.85;;;10.80;99.90;;;;;;5030751;28;20040;-80
2022/11/11 04:52:30;;;;;;;37.63;24.33;;;10.80;99.90;;;;;;5026322;28;20060;-83
2022/11/11 04:57:46;;;;;;;45.22;25.38;;;10.80;99.90;;;;;;5054741;28;20194;-80
2022/11/11 05:00:17;;;;;;;37.17;23.38;;;10.80;99.90;;;;;;5048084;28;20048;-80
2022/11/11 05:08:54;;;;;;;40.28;24.25;;;10.80;99.90;;;;;;5047063;28;20056;-80
2022/11/11 05:10:59;;;;;;;35.28;21.20;;;10.80;99.90;;;;;;5026737;28;20057;-81
2022/11/11 05:22:28;;;;;;;39.33;23.17;;;10.80;99.90;;;;;;4989574;28;20488;-81
2022/11/11 05:27:39;;;;;;;37.60;21.80;;;10.80;99.90;;;;;;5058958;28;20059;-81
2022/11/11 05:30:07;;;;;;;36.88;22.55;;;10.80;99.90;;;;;;5029823;28;20123;-81
2022/11/11 05:32:32;;;;;;;35.47;22.40;;;10.90;99.90;;;;;;5046540;28;20041;-81
2022/11/11 05:34:58;;;;;;;37.25;23.73;;;10.90;99.90;;;;;;5025161;28;20056;-80
2022/11/11 05:37:24;;;;;;;39.42;23.85;;;11.00;99.90;;;;;;5045882;28;20053;-80
2022/11/11 05:39:49;;;;;;;36.70;24.02;;;11.00;99.90;;;;;;5026390;28;20060;-81
2022/11/11 05:42:15;;;;;;;38.42;22.52;;;11.00;99.90;;;;;;5022082;28;20040;-80
2022/11/11 05:44:41;;;;;;;41.70;23.02;;;11.00;99.90;;;;;;5029545;28;20046;-81
2022/11/11 05:47:07;;;;;;;36.35;23.23;;;11.00;99.90;;;;;;5029469;28;21853;-81
2022/11/11 05:49:33;;;;;;;38.13;23.90;;;11.00;99.90;;;;;;5010830;28;20049;-80
2022/11/11 05:51:59;;;;;;;40.72;23.83;;;11.00;99.90;;;;;;4994284;28;20056;-81
2022/11/11 05:54:25;;;;;;;38.17;24.10;;;11.00;99.90;;;;;;5041390;28;20084;-82
2022/11/11 05:56:51;;;;;;;37.35;23.10;;;11.00;99.90;;;;;;5047343;28;20143;-80
2022/11/11 05:59:16;;;;;;;35.97;23.75;;;11.00;99.90;;;;;;5030560;28;20464;-81
2022/11/11 06:01:42;;;;;;;37.70;23.17;;;11.00;99.90;;;;;;5051001;28;20048;-81
2022/11/11 06:04:08;;;;;;;38.08;23.42;;;11.10;99.90;;;;;;5050586;28;20132;-81
2022/11/11 06:06:34;;;;;;;35.88;23.92;;;11.00;99.90;;;;;;5024761;28;20133;-81
2022/11/11 06:09:01;;;;;;;41.63;25.17;;;11.00;99.90;;;;;;5026608;28;20042;-81
2022/11/11 06:11:27;;;;;;;37.35;24.08;;;11.00;99.90;;;;;;5037459;28;20040;-81
2022/11/11 06:13:53;;;;;;;38.00;23.20;;;11.00;99.90;;;;;;5047977;28;20095;-81
2022/11/11 06:16:19;;;;;;;37.40;24.25;;;11.00;99.90;;;;;;5047692;28;20478;-81
2022/11/11 06:18:45;;;;;;;38.15;22.27;;;11.00;99.90;;;;;;5030677;28;20051;-82
2022/11/11 06:21:11;;;;;;;39.05;22.83;;;11.00;99.90;;;;;;5047890;28;20045;-81
2022/11/11 06:23:37;;;;;;;36.92;23.77;;;11.00;99.90;;;;;;5049283;28;20056;-81
2022/11/11 06:26:12;;;;;;;41.13;23.83;;;11.00;99.90;;;;;;5057436;28;20045;-84
2022/11/11 06:28:50;;;;;;;35.58;21.75;;;11.00;99.90;;;;;;5035065;28;20589;-81
2022/11/11 06:31:18;;;;;;;37.00;24.05;;;11.00;99.90;;;;;;5047325;28;20187;-80
2022/11/11 06:33:44;;;;;;;36.97;22.92;;;11.00;99.90;;;;;;5028763;28;20206;-84
2022/11/11 06:36:12;;;;;;;39.58;22.52;;;10.90;99.90;;;;;;5046781;28;20542;-85
2022/11/11 06:38:38;;;;;;;39.13;24.83;;;10.90;99.90;;;;;;5034570;28;20120;-81
2022/11/11 06:41:04;;;;;;;35.50;22.48;;;10.90;99.90;;;;;;5048339;28;20049;-84
2022/11/11 06:43:30;;;;;;;37.67;23.17;;;11.00;99.90;;;;;;5014972;28;20068;-83
2022/11/11 06:45:56;;;;;;;35.75;22.48;;;10.90;99.90;;;;;;5026778;28;20053;-81
2022/11/11 06:48:24;;;;;;;42.58;24.58;;;11.00;99.90;;;;;;5034741;28;20047;-82
2022/11/11 06:50:50;;;;;;;43.35;22.88;;;11.00;99.90;;;;;;5047492;28;20071;-82
2022/11/11 06:53:18;;;;;;;37.78;23.40;;;10.90;99.90;;;;;;5029349;28;20534;-82
2022/11/11 06:55:44;;;;;;;36.55;23.17;;;10.90;99.90;;;;;;5042153;28;20711;-84
2022/11/11 06:58:15;;;;;;;34.20;21.67;;;10.90;99.90;;;;;;5021026;28;20049;-81
2022/11/11 07:00:42;;;;;;;40.88;22.48;;;10.90;99.90;;;;;;5048144;28;20041;-81
2022/11/11 07:03:10;;;;;;;32.17;21.92;;;10.90;99.90;;;;;;5032485;28;20489;-81
2022/11/11 07:05:36;;;;;;;37.25;20.73;;;11.00;99.90;;;;;;5051643;28;20140;-81
2022/11/11 07:08:07;;;;;;;40.97;22.45;;;10.90;99.90;;;;;;5030592;28;20124;-81
2022/11/11 07:10:34;;;;;;;35.20;21.00;;;11.00;99.90;;;;;;5030830;28;20042;-81
2022/11/11 07:13:01;;;;;;;31.00;18.50;;;11.00;99.90;;;;;;5049216;28;20482;-81
2022/11/11 07:15:27;;;;;;;37.45;21.98;;;11.00;99.90;;;;;;5034149;28;20127;-81
2022/11/11 07:17:53;;;;;;;34.80;21.27;;;11.00;99.90;;;;;;5020322;28;20131;-81
2022/11/11 07:20:19;;;;;;;37.60;21.30;;;11.00;99.90;;;;;;5028101;28;20143;-82
2022/11/11 07:22:45;;;;;;;38.45;20.98;;;11.00;99.90;;;;;;5031493;28;20068;-82
2022/11/11 07:25:11;;;;;;;36.10;21.17;;;11.10;99.90;;;;;;5014738;28;20328;-82
2022/11/11 07:27:41;;;;;;;36.00;21.80;;;11.00;99.90;;;;;;5034663;28;20042;-81
2022/11/11 07:30:08;;;;;;;38.28;21.17;;;11.10;99.90;;;;;;5037070;28;20394;-81
2022/11/11 07:32:34;;;;;;;36.63;20.45;;;11.10;99.90;;;;;;5035402;28;20041;-83
2022/11/11 07:34:59;;;;;;;31.58;19.60;;;11.20;99.90;;;;;;5048692;28;20076;-83
2022/11/11 07:37:25;;;;;;;39.08;20.45;;;11.10;99.90;;;;;;5006169;28;20128;-82
2022/11/11 07:39:51;;;;;;;30.73;19.58;;;11.10;99.90;;;;;;5044255;28;20694;-85
2022/11/11 07:42:17;;;;;;;36.53;20.42;;;11.10;99.90;;;;;;5026071;28;20052;-81
2022/11/11 07:44:43;;;;;;;31.65;21.00;;;11.10;99.90;;;;;;5014984;28;20041;-80
2022/11/11 07:47:09;;;;;;;34.30;20.05;;;11.20;99.90;;;;;;5048041;28;20049;-83
2022/11/11 07:49:35;;;;;;;28.15;19.30;;;11.20;99.90;;;;;;5048425;28;20053;-81
2022/11/11 07:52:00;;;;;;;31.33;20.00;;;11.20;99.90;;;;;;5014625;28;20071;-82
2022/11/11 07:54:26;;;;;;;34.20;19.20;;;11.20;99.90;;;;;;5031845;28;20045;-83
2022/11/11 07:56:52;;;;;;;29.20;18.52;;;11.20;99.90;;;;;;5024681;28;20048;-80
2022/11/11 07:59:17;;;;;;;33.53;19.08;;;11.20;99.90;;;;;;5041515;28;20383;-82
2022/11/11 08:01:43;;;;;;;33.90;20.42;;;11.20;99.90;;;;;;5035617;28;20077;-82
2022/11/11 08:04:09;;;;;;;32.40;19.25;;;11.20;99.90;;;;;;5046435;28;20056;-82
2022/11/11 08:06:35;;;;;;;31.45;19.52;;;11.30;99.90;;;;;;5047039;28;20045;-81
2022/11/11 08:09:00;;;;;;;32.83;20.20;;;11.30;99.90;;;;;;5030288;28;20478;-82
2022/11/11 08:14:13;;;;;;;27.60;16.65;;;11.30;99.90;;;;;;5038121;28;20048;-81
2022/11/11 08:16:39;;;;;;;31.88;18.52;;;11.30;99.90;;;;;;5047303;28;20082;-84
2022/11/11 08:19:04;;;;;;;35.67;18.30;;;11.30;99.90;;;;;;5041632;28;20044;-81
2022/11/11 08:21:30;;;;;;;37.45;19.88;;;11.40;99.90;;;;;;5035371;28;20045;-82
2022/11/11 08:23:56;;;;;;;25.42;18.00;;;11.40;99.90;;;;;;5011071;28;20453;-82
2022/11/11 08:26:22;;;;;;;35.72;19.40;;;11.40;99.90;;;;;;5043535;28;20044;-82
2022/11/11 08:28:50;;;;;;;29.83;18.88;;;11.40;99.90;;;;;;5019950;28;20047;-81
2022/11/11 08:31:15;;;;;;;26.35;17.52;;;11.40;99.90;;;;;;5023078;28;20049;-81
2022/11/11 08:33:41;;;;;;;30.25;18.40;;;11.50;99.90;;;;;;5029666;28;20052;-83
2022/11/11 08:36:07;;;;;;;31.33;18.45;;;11.50;99.90;;;;;;5033429;28;20036;-81
2022/11/11 08:38:34;;;;;;;32.42;18.15;;;11.50;99.90;;;;;;5027708;28;20131;-80
2022/11/11 08:41:01;;;;;;;37.03;20.30;;;11.50;99.90;;;;;;5040295;28;20049;-86
2022/11/11 08:43:26;;;;;;;29.35;18.48;;;11.50;99.90;;;;;;5051056;28;20136;-84
2022/11/11 08:45:52;;;;;;;26.90;17.80;;;11.60;99.90;;;;;;5030394;28;20132;-82
2022/11/11 08:48:18;;;;;;;22.83;16.90;;;11.60;99.90;;;;;;5025407;28;20474;-81
2022/11/11 08:50:44;;;;;;;31.38;16.63;;;11.60;99.90;;;;;;5032276;28;20049;-85
2022/11/11 08:53:10;;;;;;;25.23;16.80;;;11.70;99.90;;;;;;5041912;28;20049;-81
2022/11/11 08:55:36;;;;;;;29.67;16.80;;;11.70;99.90;;;;;;5031959;28;20053;-80
2022/11/11 08:58:04;;;;;;;27.85;16.35;;;11.70;99.90;;;;;;5050003;28;20060;-87
2022/11/11 09:00:31;;;;;;;24.95;16.25;;;11.70;99.90;;;;;;5041217;28;20057;-80
2022/11/11 09:03:02;;;;;;;26.27;16.63;;;11.80;99.90;;;;;;5031086;28;20053;-80
2022/11/11 09:05:28;;;;;;;29.77;17.35;;;11.70;99.90;;;;;;5045523;28;20049;-81
2022/11/11 09:07:54;;;;;;;24.80;16.38;;;11.70;99.90;;;;;;5044691;28;20332;-83
2022/11/11 09:10:20;;;;;;;24.40;15.70;;;11.70;99.90;;;;;;5045195;28;20115;-83
2022/11/11 09:12:45;;;;;;;27.63;16.60;;;11.70;99.90;;;;;;5045423;28;20054;-82
2022/11/11 09:15:11;;;;;;;24.48;16.50;;;11.70;99.90;;;;;;5035014;28;20072;-80
2022/11/11 09:17:37;;;;;;;30.30;16.75;;;11.80;99.90;;;;;;5048706;28;20084;-80
2022/11/11 09:20:03;;;;;;;29.23;15.95;;;11.70;99.90;;;;;;5046860;28;20385;-81
2022/11/11 09:22:29;;;;;;;27.30;16.25;;;11.70;99.90;;;;;;5044479;28;20052;-81
2022/11/11 09:24:55;;;;;;;27.70;15.73;;;11.70;99.90;;;;;;5046183;28;20054;-83
2022/11/11 09:27:21;;;;;;;27.25;16.65;;;11.70;99.90;;;;;;5046382;28;20044;-81
2022/11/11 09:29:46;;;;;;;28.13;15.18;;;11.70;99.90;;;;;;5046434;28;20048;-81
2022/11/11 09:32:12;;;;;;;24.88;15.23;;;11.80;99.90;;;;;;5045374;28;20462;-81
2022/11/11 09:34:38;;;;;;;25.08;15.68;;;11.80;99.90;;;;;;5047814;28;20045;-81
2022/11/11 09:37:03;;;;;;;22.70;15.20;;;11.80;99.90;;;;;;5046626;28;20048;-81
2022/11/11 09:39:29;;;;;;;21.20;15.63;;;11.90;99.90;;;;;;5047237;28;20386;-81
2022/11/11 09:42:12;;;;;;;22.95;14.85;;;12.00;99.90;;;;;;5030896;28;20045;-81
2022/11/11 09:44:54;;;;;;;26.58;15.32;;;12.00;99.90;;;;;;5047558;28;20465;-80
2022/11/11 09:47:40;;;;;;;22.13;15.35;;;12.00;99.90;;;;;;5041072;28;20049;-81
2022/11/11 09:50:17;;;;;;;21.48;14.23;;;12.10;99.90;;;;;;5015906;28;20154;-83
2022/11/11 09:52:53;;;;;;;19.88;13.73;;;12.10;99.90;;;;;;5057737;28;20044;-81
2022/11/11 09:55:37;;;;;;;19.90;13.73;;;12.20;99.90;;;;;;5034917;28;20048;-80
2022/11/11 09:58:17;;;;;;;18.92;13.82;;;12.20;99.90;;;;;;5060413;28;20068;-81
2022/11/11 10:00:47;;;;;;;19.92;13.70;;;12.30;99.90;;;;;;5031440;28;20052;-80
2022/11/11 10:03:18;;;;;;;17.65;13.98;;;12.30;99.90;;;;;;5014613;28;20041;-87
2022/11/11 10:06:01;;;;;;;21.90;12.80;;;12.40;99.90;;;;;;5043624;28;20052;-81
2022/11/11 10:08:42;;;;;;;21.88;13.02;;;12.40;99.90;;;;;;5011599;28;20073;-81
2022/11/11 10:11:28;;;;;;;21.38;14.27;;;12.40;99.90;;;;;;5044602;28;20041;-81
2022/11/11 10:13:55;;;;;;;18.00;12.63;;;12.40;99.90;;;;;;5032200;28;20555;-82
2022/11/11 10:17:14;;;;;;;19.85;14.05;;;12.40;99.90;;;;;;5040168;28;20479;-82
2022/11/11 10:19:51;;;;;;;19.63;13.90;;;12.40;99.90;;;;;;5001207;28;20566;-82
2022/11/11 10:22:24;;;;;;;23.15;12.85;;;12.40;99.90;;;;;;5009530;28;20057;-81
2022/11/11 10:25:13;;;;;;;19.65;13.15;;;12.50;99.90;;;;;;5032575;28;20083;-81
2022/11/11 10:27:42;;;;;;;19.65;12.57;;;12.60;99.90;;;;;;5027751;28;20138;-81
2022/11/11 10:30:16;;;;;;;21.60;12.98;;;12.60;99.90;;;;;;5060201;28;20056;-81
2022/11/11 10:32:52;;;;;;;17.92;13.20;;;12.60;99.90;;;;;;5048415;28;20052;-82
2022/11/11 10:35:22;;;;;;;20.83;13.57;;;12.60;99.90;;;;;;5028703;28;20045;-81
2022/11/11 10:38:09;;;;;;;23.23;13.57;;;12.60;99.90;;;;;;5057860;28;20093;-79
2022/11/11 10:40:45;;;;;;;;;;;12.70;99.90;;;;;;5057556;28;20049;-81
2022/11/11 10:43:28;;;;;;;21.48;13.68;;;12.60;99.90;;;;;;5048011;28;19921;-81
2022/11/11 10:46:07;;;;;;;20.08;12.85;;;12.70;99.90;;;;;;5042404;28;20053;-80
2022/11/11 10:49:01;;;;;;;15.20;11.43;;;12.80;99.90;;;;;;5052450;28;20052;-81
2022/11/11 10:51:31;;;;;;;20.05;12.63;;;12.80;99.90;;;;;;5049064;28;20123;-81
2022/11/11 10:54:23;;;;;;;20.75;12.88;;;12.90;99.90;;;;;;5049527;28;20130;-80
2022/11/11 10:57:02;;;;;;;20.13;13.77;;;12.80;99.90;;;;;;5018105;28;20037;-80
2022/11/11 10:59:45;;;;;;;17.48;11.80;;;12.80;99.90;;;;;;5033492;28;20049;-80
2022/11/11 11:02:25;;;;;;;18.63;11.52;;;12.80;99.90;;;;;;5033973;28;20046;-81
2022/11/11 11:05:06;;;;;;;18.85;12.20;;;12.90;99.90;;;;;;5050734;28;20421;-81
2022/11/11 11:07:45;;;;;;;18.55;12.63;;;12.90;99.90;;;;;;5063197;28;20051;-83
2022/11/11 11:10:34;;;;;;;18.13;12.30;;;13.00;99.90;;;;;;5043825;28;20087;-82
2022/11/11 11:13:11;;;;;;;17.95;11.35;;;13.00;99.90;;;;;;5028971;28;20065;-83
2022/11/11 11:15:47;;;;;;;16.77;11.40;;;13.00;99.90;;;;;;5057503;28;20049;-82
2022/11/11 11:18:15;;;;;;;16.45;11.07;;;13.00;99.90;;;;;;5029889;28;20513;-80
2022/11/11 11:21:03;;;;;;;19.90;11.68;;;13.00;99.90;;;;;;5049064;28;20037;-82
2022/11/11 11:23:42;;;;;;;18.13;11.98;;;13.00;99.90;;;;;;5045523;28;20036;-82
2022/11/11 11:26:10;;;;;;;17.52;12.25;;;13.10;99.90;;;;;;5033526;28;20502;-82
2022/11/11 11:28:57;;;;;;;18.95;12.45;;;13.00;99.90;;;;;;5034329;28;20049;-82
2022/11/11 11:31:38;;;;;;;21.17;12.27;;;13.10;99.90;;;;;;5043083;28;20044;-86
2022/11/11 11:34:04;;;;;;;18.85;12.52;;;13.00;99.90;;;;;;5014512;28;20050;-82
2022/11/11 11:36:30;;;;;;;16.00;11.40;;;13.00;99.90;;;;;;5034735;28;20045;-81
2022/11/11 11:38:55;;;;;;;16.10;12.35;;;13.00;99.90;;;;;;5014936;28;20055;-80
2022/11/11 11:41:42;;;;;;;17.13;11.98;;;12.90;99.90;;;;;;5049753;28;20052;-82
2022/11/11 11:44:25;;;;;;;16.52;11.82;;;12.90;99.90;;;;;;5031946;28;20107;-82
2022/11/11 11:46:57;;;;;;;16.25;12.20;;;12.90;99.90;;;;;;5027332;28;20116;-83
2022/11/11 11:49:54;;;;;;;17.02;11.43;;;13.00;99.90;;;;;;5044982;28;20502;-82
2022/11/11 11:52:48;;;;;;;14.85;9.25;;;13.00;99.90;;;;;;5030464;28;20037;-82
2022/11/11 11:55:41;;;;;;;13.65;10.23;;;13.00;99.90;;;;;;5046931;28;20049;-83
2022/11/11 11:58:07;;;;;;;18.70;11.68;;;12.90;99.90;;;;;;5046419;28;20144;-82
2022/11/11 12:00:47;;;;;;;15.95;10.68;;;12.90;99.90;;;;;;5054553;28;20223;-82
2022/11/11 12:03:17;;;;;;;16.65;12.20;;;12.90;99.90;;;;;;5041572;28;20091;-82
2022/11/11 12:05:49;;;;;;;16.88;12.75;;;12.90;99.90;;;;;;5029743;28;20397;-81
2022/11/11 12:09:04;;;;;;;19.13;12.23;;;13.00;99.90;;;;;;5033740;28;20494;-82
2022/11/11 12:11:45;;;;;;;17.83;12.75;;;13.10;99.90;;;;;;4956849;28;20069;-81
2022/11/11 12:14:55;;;;;;;16.23;12.00;;;13.20;99.90;;;;;;5025321;28;20136;-84
2022/11/11 12:17:39;;;;;;;15.73;12.27;;;13.20;99.90;;;;;;5045196;28;20118;-82
2022/11/11 12:20:24;;;;;;;14.90;9.68;;;13.20;99.90;;;;;;5056860;28;20052;-82
2022/11/11 12:23:36;;;;;;;14.70;10.27;;;13.20;99.90;;;;;;5031766;28;20359;-82
2022/11/11 12:26:38;;;;;;;15.13;10.55;;;13.10;99.90;;;;;;5038436;28;20056;-82
2022/11/11 12:29:42;;;;;;;17.80;12.23;;;12.90;99.90;;;;;;5035314;28;20044;-81
2022/11/11 12:32:10;;;;;;;18.88;13.02;;;12.90;99.90;;;;;;5051855;28;20040;-82
2022/11/11 12:34:55;;;;;;;16.90;12.23;;;13.00;99.90;;;;;;5029704;28;20397;-81
2022/11/11 12:37:32;;;;;;;19.65;13.30;;;13.00;99.90;;;;;;5052231;28;20623;-81
2022/11/11 12:40:34;;;;;;;19.23;11.98;;;13.10;99.90;;;;;;5028849;28;20052;-81
2022/11/11 12:43:19;;;;;;;19.75;13.10;;;13.20;99.90;;;;;;5051809;28;20114;-82
2022/11/11 12:45:51;;;;;;;21.10;12.70;;;13.10;99.90;;;;;;5045939;28;20501;-82
2022/11/11 12:48:37;;;;;;;15.45;12.65;;;13.20;99.90;;;;;;5042973;28;20094;-82
2022/11/11 12:51:18;;;;;;;16.83;11.77;;;13.20;99.90;;;;;;5048844;28;20517;-81
2022/11/11 12:54:01;;;;;;;14.38;11.02;;;13.20;99.90;;;;;;5051145;28;20307;-81
2022/11/11 12:57:02;;;;;;;14.80;11.35;;;13.10;99.90;;;;;;5050833;28;20048;-81
2022/11/11 12:59:49;;;;;;;12.90;9.18;;;13.00;99.90;;;;;;5046980;28;20045;-83
2022/11/11 13:02:24;;;;;;;15.98;10.60;;;12.90;99.90;;;;;;5053476;28;20049;-81
2022/11/11 13:05:13;;;;;;;14.88;11.65;;;12.80;99.90;;;;;;5031622;28;20742;-82
2022/11/11 13:07:58;;;;;;;15.45;11.90;;;12.70;99.90;;;;;;5051033;28;20057;-82
2022/11/11 13:10:46;;;;;;;16.48;11.75;;;12.60;99.90;;;;;;5063838;28;20209;-81
2022/11/11 13:13:27;;;;;;;17.65;11.50;;;12.60;99.90;;;;;;5051471;28;20525;-82
2022/11/11 13:15:55;;;;;;;15.93;10.85;;;12.60;99.90;;;;;;5033668;28;20068;-81
2022/11/11 13:18:34;;;;;;;17.70;11.57;;;12.50;99.90;;;;;;5064048;28;20044;-82
2022/11/11 13:21:06;;;;;;;16.77;11.38;;;12.60;99.90;;;;;;5028244;28;20049;-81
2022/11/11 13:23:32;;;;;;;14.82;10.65;;;12.50;99.90;;;;;;5043705;28;20057;-81
2022/11/11 13:26:03;;;;;;;16.77;11.80;;;12.40;99.90;;;;;;5047789;28;20467;-82
2022/11/11 13:28:38;;;;;;;15.88;11.07;;;12.40;99.90;;;;;;5050785;28;20194;-83
2022/11/11 13:31:10;;;;;;;17.20;11.97;;;12.40;99.90;;;;;;5026281;28;20045;-82
2022/11/11 13:33:48;;;;;;;17.08;11.68;;;12.40;99.90;;;;;;5030967;28;20074;-85
2022/11/11 13:36:16;;;;;;;15.25;11.18;;;12.40;99.90;;;;;;5045794;28;20545;-82
2022/11/11 13:38:55;;;;;;;16.60;11.20;;;12.40;99.90;;;;;;5045916;28;20041;-82
2022/11/11 13:41:37;;;;;;;19.65;13.73;;;12.40;99.90;;;;;;5047959;28;20095;-83
2022/11/11 13:44:07;;;;;;;17.30;11.05;;;12.40;99.90;;;;;;5022129;28;20044;-82
2022/11/11 13:46:44;;;;;;;17.80;11.40;;;12.40;99.90;;;;;;5030627;28;20060;-81
2022/11/11 13:49:33;;;;;;;21.13;13.23;;;12.40;99.90;;;;;;5056372;28;20406;-82
2022/11/11 13:52:01;;;;;;;17.08;12.48;;;12.40;99.90;;;;;;5048880;28;20934;-81
2022/11/11 13:54:35;;;;;;;17.38;11.57;;;12.30;99.90;;;;;;5054636;28;20051;-83
2022/11/11 13:57:17;;;;;;;18.83;12.25;;;12.30;99.90;;;;;;5049102;28;20033;-84
2022/11/11 13:59:56;;;;;;;18.08;12.02;;;12.30;99.90;;;;;;5042496;28;20461;-83
2022/11/11 14:02:22;;;;;;;21.85;12.85;;;12.30;99.90;;;;;;5054598;28;20094;-82
2022/11/11 14:05:07;;;;;;;18.88;12.30;;;12.40;99.90;;;;;;5045930;28;20041;-82
2022/11/11 14:07:47;;;;;;;21.15;12.55;;;12.40;99.90;;;;;;5029105;28;20078;-82
2022/11/11 14:10:16;;;;;;;17.55;12.02;;;12.40;99.90;;;;;;5045909;28;20053;-82